createdAt,value
2023-03-21T00:01:04.297Z,84.47
2023-03-21T00:03:38.118Z,85.55
2023-03-21T00:06:14.071Z,85.22
2023-03-21T00:08:46.994Z,85.26
2023-03-21T00:11:19.993Z,85.15
2023-03-21T00:13:58.548Z,84.31
2023-03-21T00:16:33.620Z,84.48
2023-03-21T00:19:09.790Z,84.97
2023-03-21T00:22:05.429Z,85.56
2023-03-21T00:24:39.738Z,85.01
2023-03-21T00:27:39.799Z,83.86
2023-03-21T00:30:07.889Z,84.43
2023-03-21T00:32:55.151Z,85.06
2023-03-21T00:35:57.886Z,84.44
2023-03-21T00:38:24.489Z,85.30
2023-03-21T00:41:01.920Z,85.04
2023-03-21T00:43:38.201Z,84.88
2023-03-21T00:46:11.693Z,85.11
2023-03-21T00:48:44.620Z,85.15
2023-03-21T00:51:26.059Z,85.50
2023-03-21T00:54:00.731Z,84.74
2023-03-21T00:56:34.088Z,84.48
2023-03-21T00:59:06.947Z,85.84
2023-03-21T01:01:39.947Z,85.14
2023-03-21T01:04:14.681Z,84.79
2023-03-21T01:06:47.886Z,84.99
2023-03-21T01:09:23.302Z,84.34
2023-03-21T01:11:57.282Z,85.20
2023-03-21T01:14:30.879Z,84.91
2023-03-21T01:17:04.745Z,85.62
2023-03-21T01:19:51.212Z,85.23
2023-03-21T01:22:25.480Z,85.39
2023-03-21T01:25:19.120Z,85.56
2023-03-21T01:27:54.811Z,85.92
2023-03-21T01:30:31.224Z,85.51
2023-03-21T01:33:04.342Z,85.35
2023-03-21T01:35:49.177Z,85.38
2023-03-21T01:38:26.229Z,86.36
2023-03-21T01:41:06.184Z,84.92
2023-03-21T01:43:41.812Z,85.43
2023-03-21T01:46:22.694Z,85.94
2023-03-21T01:48:57.416Z,85.87
2023-03-21T01:51:31.840Z,85.89
2023-03-21T01:54:06.809Z,85.66
2023-03-21T01:56:41.924Z,86.00
2023-03-21T01:59:17.608Z,86.12
2023-03-21T02:01:52.120Z,85.96
2023-03-21T02:04:28.063Z,85.78
2023-03-21T02:07:05.462Z,86.61
2023-03-21T02:09:40.383Z,86.59
2023-03-21T02:12:16.303Z,85.97
2023-03-21T02:14:51.197Z,86.53
2023-03-21T02:17:28.419Z,87.61
2023-03-21T02:20:25.472Z,86.33
2023-03-21T02:23:17.368Z,86.68
2023-03-21T02:25:59.195Z,86.82
2023-03-21T02:28:36.648Z,87.20
2023-03-21T02:31:20.109Z,86.65
2023-03-21T02:34:19.918Z,87.26
2023-03-21T02:37:01.180Z,87.35
2023-03-21T02:39:41.353Z,87.32
2023-03-21T02:42:18.025Z,86.75
2023-03-21T02:44:55.742Z,87.07
2023-03-21T02:47:31.549Z,88.26
2023-03-21T02:50:09.374Z,88.12
2023-03-21T02:52:47.184Z,88.66
2023-03-21T02:55:25.824Z,88.89
2023-03-21T02:58:06.910Z,88.36
2023-03-21T03:00:44.228Z,89.08
2023-03-21T03:03:27.959Z,88.30
2023-03-21T03:06:12.853Z,88.29
2023-03-21T03:09:02.212Z,89.27
2023-03-21T03:11:37.732Z,88.73
2023-03-21T03:14:49.983Z,88.52
2023-03-21T03:17:38.395Z,87.91
2023-03-21T03:20:17.518Z,88.16
2023-03-21T03:22:55.942Z,88.93
2023-03-21T03:25:42.478Z,89.34
2023-03-21T03:28:17.724Z,89.21
2023-03-21T03:31:07.416Z,89.94
2023-03-21T03:33:45.048Z,89.52
2023-03-21T03:36:30.859Z,89.57
2023-03-21T03:39:06.754Z,89.75
2023-03-21T03:42:06.121Z,89.80
2023-03-21T03:44:39.048Z,91.31
2023-03-21T03:47:22.804Z,91.82
2023-03-21T03:50:05.852Z,91.40
2023-03-21T03:52:53.644Z,91.33
2023-03-21T03:55:34.409Z,92.72
2023-03-21T03:58:21.349Z,91.67
2023-03-21T04:00:57.126Z,91.61
2023-03-21T04:03:39.217Z,91.32
2023-03-21T04:06:19.913Z,89.16
2023-03-21T04:08:53.286Z,89.08
2023-03-21T04:11:27.615Z,89.75
2023-03-21T04:14:02.488Z,89.58
2023-03-21T04:16:36.146Z,90.13
2023-03-21T04:19:09.399Z,90.72
2023-03-21T04:21:42.553Z,90.92
2023-03-21T04:24:15.748Z,91.20
2023-03-21T04:26:48.889Z,90.38
2023-03-21T04:29:24.149Z,91.75
2023-03-21T04:31:57.517Z,90.67
2023-03-21T04:34:30.632Z,91.36
2023-03-21T04:37:11.073Z,90.68
2023-03-21T04:39:46.351Z,90.89
2023-03-21T04:42:19.929Z,90.90
2023-03-21T04:44:54.169Z,91.86
2023-03-21T04:47:27.185Z,90.94
2023-03-21T04:50:00.960Z,91.10
2023-03-21T04:52:34.177Z,90.07
2023-03-21T04:55:10.451Z,92.08
2023-03-21T04:57:43.477Z,91.09
2023-03-21T05:00:18.430Z,89.68
2023-03-21T05:02:51.545Z,90.65
2023-03-21T05:05:24.717Z,91.50
2023-03-21T05:07:57.948Z,92.17
2023-03-21T05:10:31.058Z,92.34
2023-03-21T05:13:05.791Z,91.64
2023-03-21T05:15:40.764Z,91.96
2023-03-21T05:18:13.721Z,91.63
2023-03-21T05:20:53.697Z,92.03
2023-03-21T05:23:31.836Z,93.31
2023-03-21T05:26:05.213Z,92.89
2023-03-21T05:28:40.125Z,92.52
2023-03-21T05:31:16.798Z,92.30
2023-03-21T05:33:49.915Z,92.43
2023-03-21T05:36:22.996Z,91.93
2023-03-21T05:38:56.348Z,90.80
2023-03-21T05:41:29.500Z,89.74
2023-03-21T05:44:02.415Z,89.90
2023-03-21T05:46:37.208Z,90.48
2023-03-21T05:49:11.146Z,89.74
2023-03-21T05:51:45.390Z,89.78
2023-03-21T05:54:18.367Z,90.63
2023-03-21T05:56:51.390Z,92.10
2023-03-21T05:59:25.580Z,91.49
2023-03-21T06:02:01.085Z,91.22
2023-03-21T06:04:34.297Z,92.00
2023-03-21T06:07:07.256Z,91.49
2023-03-21T06:09:40.928Z,90.92
2023-03-21T06:12:14.658Z,91.45
2023-03-21T06:14:47.766Z,91.80
2023-03-21T06:17:22.385Z,91.57
2023-03-21T06:19:55.768Z,91.02
2023-03-21T06:22:28.855Z,91.43
2023-03-21T06:25:01.928Z,90.60
2023-03-21T06:27:35.386Z,90.79
2023-03-21T06:30:09.672Z,91.15
2023-03-21T06:32:44.926Z,90.37
2023-03-21T06:35:18.012Z,89.57
2023-03-21T06:37:51.093Z,90.63
2023-03-21T06:40:24.140Z,90.48
2023-03-21T06:42:57.157Z,90.25
2023-03-21T06:45:30.364Z,90.72
2023-03-21T06:48:07.004Z,90.48
2023-03-21T06:50:41.984Z,90.78
2023-03-21T06:53:15.036Z,90.68
2023-03-21T06:55:50.192Z,90.38
2023-03-21T06:58:24.037Z,91.49
2023-03-21T07:00:59.716Z,91.56
2023-03-21T07:03:34.296Z,90.51
2023-03-21T07:06:08.723Z,90.19
2023-03-21T07:08:42.450Z,90.07
2023-03-21T07:11:15.929Z,89.40
2023-03-21T07:13:50.388Z,89.79
2023-03-21T07:16:25.011Z,89.32
2023-03-21T07:18:59.606Z,88.88
2023-03-21T07:21:32.764Z,88.48
2023-03-21T07:24:06.191Z,89.00
2023-03-21T07:26:39.376Z,89.02
2023-03-21T07:29:12.487Z,88.95
2023-03-21T07:31:45.529Z,88.83
2023-03-21T07:34:20.857Z,88.81
2023-03-21T07:36:53.824Z,89.17
2023-03-21T07:39:27.146Z,89.00
2023-03-21T07:42:00.926Z,89.11
2023-03-21T07:44:34.715Z,88.89
2023-03-21T07:47:07.824Z,88.68
2023-03-21T07:49:42.233Z,88.85
2023-03-21T07:52:15.586Z,86.94
2023-03-21T07:54:50.021Z,87.61
2023-03-21T07:57:23.484Z,87.02
2023-03-21T07:59:56.463Z,86.06
2023-03-21T08:02:29.697Z,85.67
2023-03-21T08:05:05.089Z,84.46
2023-03-21T08:07:38.072Z,83.50
2023-03-21T08:10:12.269Z,81.57
2023-03-21T08:12:46.638Z,81.64
2023-03-21T08:15:21.691Z,82.98
2023-03-21T08:17:54.647Z,81.72
2023-03-21T08:20:29.016Z,82.85
2023-03-21T08:23:02.336Z,84.44
2023-03-21T08:25:36.964Z,84.52
2023-03-21T08:28:10.000Z,82.27
2023-03-21T08:30:43.445Z,82.25
2023-03-21T08:33:17.391Z,82.46
2023-03-21T08:35:52.566Z,81.07
2023-03-21T08:38:29.718Z,79.12
2023-03-21T08:41:03.951Z,77.53
2023-03-21T08:43:36.881Z,78.73
2023-03-21T08:46:10.093Z,78.40
2023-03-21T08:48:43.333Z,79.10
2023-03-21T08:51:17.916Z,79.96
2023-03-21T08:53:52.095Z,79.57
2023-03-21T08:56:25.003Z,78.70
2023-03-21T08:58:59.068Z,78.54
2023-03-21T09:01:32.652Z,80.53
2023-03-21T09:04:08.048Z,80.22
2023-03-21T09:06:45.648Z,79.87
2023-03-21T09:09:19.211Z,78.45
2023-03-21T09:11:53.175Z,78.98
2023-03-21T09:14:28.897Z,79.01
2023-03-21T09:17:02.876Z,78.11
2023-03-21T09:19:36.381Z,77.39
2023-03-21T09:22:17.361Z,76.70
2023-03-21T09:24:50.528Z,77.46
2023-03-21T09:27:25.510Z,77.67
2023-03-21T09:29:58.784Z,78.29
2023-03-21T09:32:32.880Z,78.28
2023-03-21T09:35:07.925Z,77.64
2023-03-21T09:37:43.055Z,77.80
2023-03-21T09:40:19.611Z,77.41
2023-03-21T09:42:59.135Z,76.17
2023-03-21T09:45:38.480Z,76.59
2023-03-21T09:48:17.590Z,76.76
2023-03-21T09:50:51.293Z,77.20
2023-03-21T09:53:28.944Z,77.32
2023-03-21T09:56:03.674Z,76.90
2023-03-21T09:58:40.475Z,77.14
2023-03-21T10:01:22.283Z,76.69
2023-03-21T10:03:56.314Z,76.78
2023-03-21T10:06:30.630Z,76.33
2023-03-21T10:09:07.963Z,75.83
2023-03-21T10:11:43.468Z,76.00
2023-03-21T10:14:19.426Z,75.72
2023-03-21T10:16:53.969Z,77.03
2023-03-21T10:19:29.138Z,77.51
2023-03-21T10:22:03.911Z,76.59
2023-03-21T10:24:39.581Z,76.39
2023-03-21T10:27:14.672Z,76.65
2023-03-21T10:29:47.740Z,77.65
2023-03-21T10:32:22.882Z,76.66
2023-03-21T10:37:36.373Z,76.45
2023-03-21T10:40:15.899Z,75.18
2023-03-21T10:42:48.849Z,75.64
2023-03-21T10:45:23.900Z,75.43
2023-03-21T10:47:58.358Z,75.38
2023-03-21T10:50:31.788Z,75.22
2023-03-21T10:53:04.997Z,75.56
2023-03-21T10:55:42.008Z,74.31
2023-03-21T10:58:18.816Z,74.17
2023-03-21T11:00:55.619Z,74.35
2023-03-21T11:03:32.754Z,73.10
2023-03-21T11:06:07.880Z,73.33
2023-03-21T11:08:42.920Z,72.02
2023-03-21T11:11:22.538Z,74.99
2023-03-21T11:14:00.611Z,73.06
2023-03-21T11:16:39.730Z,72.38
2023-03-21T11:19:15.738Z,72.02
2023-03-21T11:21:48.785Z,71.76
2023-03-21T11:24:22.112Z,73.57
2023-03-21T11:26:57.708Z,72.93
2023-03-21T11:29:32.199Z,72.56
2023-03-21T11:32:12.244Z,72.72
2023-03-21T11:34:48.226Z,72.80
2023-03-21T11:37:22.915Z,73.79
2023-03-21T11:40:08.045Z,74.20
2023-03-21T11:42:44.352Z,73.14
2023-03-21T11:45:19.132Z,73.34
2023-03-21T11:47:53.006Z,72.22
2023-03-21T11:50:32.634Z,72.62
2023-03-21T11:53:27.116Z,72.25
2023-03-21T11:56:04.773Z,71.43
2023-03-21T11:58:45.086Z,71.20
2023-03-21T12:01:21.960Z,75.29
2023-03-21T12:04:08.828Z,71.68
2023-03-21T12:06:44.824Z,71.87
2023-03-21T12:09:28.944Z,71.04
2023-03-21T12:12:18.743Z,71.11
2023-03-21T12:15:00.226Z,70.79
2023-03-21T12:17:41.491Z,70.39
2023-03-21T12:20:30.060Z,71.85
2023-03-21T12:23:13.880Z,70.58
2023-03-21T12:25:51.131Z,71.09
2023-03-21T12:28:33.321Z,69.92
2023-03-21T12:31:10.965Z,69.67
2023-03-21T12:33:51.909Z,69.54
2023-03-21T12:36:32.763Z,68.97
2023-03-21T12:39:15.168Z,69.18
2023-03-21T12:41:55.124Z,69.41
2023-03-21T12:44:30.954Z,69.19
2023-03-21T12:47:08.898Z,68.28
2023-03-21T12:49:45.325Z,68.11
2023-03-21T12:52:20.926Z,68.56
2023-03-21T12:54:57.872Z,67.07
2023-03-21T12:57:35.724Z,66.31
2023-03-21T13:03:27.734Z,65.75
2023-03-21T13:06:07.608Z,65.78
2023-03-21T13:08:43.131Z,66.30
2023-03-21T13:11:18.688Z,66.25
2023-03-21T13:13:58.946Z,65.62
2023-03-21T13:16:35.282Z,65.92
2023-03-21T13:19:15.681Z,66.32
2023-03-21T13:21:52.267Z,66.91
2023-03-21T13:24:27.409Z,66.40
2023-03-21T13:27:04.200Z,66.97
2023-03-21T13:29:44.351Z,65.58
2023-03-21T13:32:22.277Z,65.17
2023-03-21T13:34:57.966Z,65.31
2023-03-21T13:37:35.698Z,66.56
2023-03-21T13:40:12.931Z,67.95
2023-03-21T13:42:46.729Z,67.60
2023-03-21T13:45:26.096Z,68.19
2023-03-21T13:48:00.343Z,68.67
2023-03-21T13:50:51.546Z,67.39
2023-03-21T13:53:34.362Z,67.00
2023-03-21T13:56:20.665Z,67.86
2023-03-21T13:58:55.935Z,68.68
2023-03-21T14:01:33.536Z,68.01
2023-03-21T14:04:10.770Z,68.75
2023-03-21T14:06:49.034Z,69.51
2023-03-21T14:09:26.685Z,68.85
2023-03-21T14:12:07.575Z,68.94
2023-03-21T14:14:43.470Z,68.50
2023-03-21T14:17:23.782Z,68.78
2023-03-21T14:19:57.727Z,68.03
2023-03-21T14:22:32.149Z,68.25
2023-03-21T14:25:05.312Z,69.49
2023-03-21T14:27:38.520Z,68.18
2023-03-21T14:30:20.392Z,67.80
2023-03-21T14:32:55.355Z,66.52
2023-03-21T14:35:31.298Z,65.97
2023-03-21T14:38:07.511Z,65.13
2023-03-21T14:40:47.959Z,65.17
2023-03-21T14:43:21.793Z,63.92
2023-03-21T14:45:56.191Z,65.31
2023-03-21T14:48:32.951Z,64.94
2023-03-21T14:51:09.415Z,65.38
2023-03-21T14:53:45.350Z,63.29
2023-03-21T14:56:21.210Z,64.96
2023-03-21T14:58:55.036Z,64.04
2023-03-21T15:01:30.120Z,64.28
2023-03-21T15:04:07.611Z,63.75
2023-03-21T15:06:50.480Z,63.92
2023-03-21T15:09:27.152Z,64.52
2023-03-21T15:12:02.416Z,64.10
2023-03-21T15:14:36.479Z,66.13
2023-03-21T15:17:11.660Z,67.04
2023-03-21T15:19:44.913Z,66.58
2023-03-21T15:22:21.620Z,66.54
2023-03-21T15:24:59.605Z,67.20
2023-03-21T15:27:34.225Z,67.70
2023-03-21T15:30:08.571Z,68.05
2023-03-21T15:32:41.627Z,68.66
2023-03-21T15:35:16.428Z,69.11
2023-03-21T15:37:54.392Z,68.82
2023-03-21T15:40:30.563Z,67.74
2023-03-21T15:43:08.463Z,66.84
2023-03-21T15:45:48.113Z,67.11
2023-03-21T15:48:22.662Z,67.48
2023-03-21T15:50:58.733Z,66.66
2023-03-21T15:53:33.814Z,67.62
2023-03-21T15:56:16.098Z,67.32
2023-03-21T15:58:50.641Z,69.01
2023-03-21T16:01:26.493Z,67.25
2023-03-21T16:04:03.539Z,67.76
2023-03-21T16:06:38.238Z,68.24
2023-03-21T16:09:14.100Z,68.62
2023-03-21T16:11:51.103Z,69.06
2023-03-21T16:14:27.874Z,70.23
2023-03-21T16:17:01.618Z,70.38
2023-03-21T16:19:36.220Z,70.13
2023-03-21T16:22:10.433Z,70.27
2023-03-21T16:24:43.548Z,70.84
2023-03-21T16:27:18.428Z,71.02
2023-03-21T16:29:51.666Z,71.26
2023-03-21T16:32:25.067Z,72.03
2023-03-21T16:34:58.569Z,71.98
2023-03-21T16:37:31.707Z,71.44
2023-03-21T16:40:06.146Z,72.20
2023-03-21T16:42:40.756Z,71.62
2023-03-21T16:45:13.854Z,72.25
2023-03-21T16:47:47.527Z,72.33
2023-03-21T16:50:24.518Z,72.25
2023-03-21T16:52:58.205Z,72.88
2023-03-21T16:55:33.073Z,72.28
2023-03-21T16:58:07.752Z,72.81
2023-03-21T17:00:41.383Z,72.81
2023-03-21T17:03:18.133Z,72.93
2023-03-21T17:05:51.399Z,73.10
2023-03-21T17:08:26.650Z,72.78
2023-03-21T17:10:59.986Z,72.99
2023-03-21T17:13:35.285Z,72.94
2023-03-21T17:16:10.797Z,73.22
2023-03-21T17:18:44.475Z,73.07
2023-03-21T17:21:18.917Z,73.21
2023-03-21T17:23:52.414Z,73.36
2023-03-21T17:26:26.953Z,73.06
2023-03-21T17:29:01.933Z,73.35
2023-03-21T17:31:36.281Z,73.07
2023-03-21T17:34:09.793Z,73.03
2023-03-21T17:36:43.656Z,73.46
2023-03-21T17:39:19.596Z,73.48
2023-03-21T17:41:53.131Z,73.33
2023-03-21T17:44:27.787Z,73.29
2023-03-21T17:47:00.991Z,73.18
2023-03-21T17:49:34.205Z,73.35
2023-03-21T17:52:07.775Z,72.87
2023-03-21T17:54:41.638Z,73.51
2023-03-21T17:57:14.769Z,73.48
2023-03-21T17:59:49.594Z,73.31
2023-03-21T18:02:22.750Z,73.78
2023-03-21T18:04:55.720Z,73.17
2023-03-21T18:08:02.175Z,73.45
2023-03-21T18:10:24.498Z,73.70
2023-03-21T18:12:58.395Z,73.16
2023-03-21T18:15:33.155Z,73.26
2023-03-21T18:18:06.739Z,73.67
2023-03-21T18:20:51.555Z,73.16
2023-03-21T18:23:25.685Z,72.56
2023-03-21T18:25:59.056Z,72.47
2023-03-21T18:28:32.299Z,72.92
2023-03-21T18:31:15.710Z,72.88
2023-03-21T18:33:50.228Z,73.39
2023-03-21T18:36:26.284Z,72.74
2023-03-21T18:39:03.508Z,73.72
2023-03-21T18:41:36.691Z,74.08
2023-03-21T18:44:25.082Z,74.24
2023-03-21T18:47:00.109Z,73.83
2023-03-21T18:52:28.193Z,74.64
2023-03-21T18:55:01.475Z,74.87
2023-03-21T18:57:37.348Z,75.19
2023-03-21T19:00:13.304Z,75.31
2023-03-21T19:02:50.695Z,75.83
2023-03-21T19:05:25.551Z,75.64
2023-03-21T19:07:58.668Z,75.68
2023-03-21T19:10:32.084Z,75.48
2023-03-21T19:13:07.155Z,75.62
2023-03-21T19:15:41.566Z,75.38
2023-03-21T19:21:10.977Z,75.56
2023-03-21T19:24:22.550Z,75.53
2023-03-21T19:26:37.745Z,75.45
2023-03-21T19:29:10.954Z,75.84
2023-03-21T19:31:45.745Z,76.22
2023-03-21T19:34:21.028Z,76.29
2023-03-21T19:36:54.637Z,76.34
2023-03-21T19:39:27.710Z,75.80
2023-03-21T19:42:14.992Z,76.01
2023-03-21T19:44:49.703Z,75.80
2023-03-21T19:47:22.513Z,76.05
2023-03-21T19:52:50.927Z,75.42
2023-03-21T19:55:24.452Z,75.30
2023-03-21T19:57:57.394Z,75.14
2023-03-21T20:00:30.978Z,75.54
2023-03-21T20:03:07.246Z,75.35
2023-03-21T20:05:43.115Z,75.55
2023-03-21T20:08:16.136Z,76.42
2023-03-21T20:10:49.350Z,76.07
2023-03-21T20:13:23.309Z,76.55
2023-03-21T20:16:03.057Z,76.26
2023-03-21T20:18:38.089Z,76.32
2023-03-21T20:21:17.518Z,78.10
2023-03-21T20:23:51.813Z,79.38
2023-03-21T20:26:25.272Z,79.99
2023-03-21T20:29:28.030Z,81.15
2023-03-21T20:31:53.311Z,81.74
2023-03-21T20:34:26.674Z,82.83
2023-03-21T20:37:03.151Z,83.88
2023-03-21T20:39:36.290Z,83.86
2023-03-21T20:42:09.825Z,84.40
2023-03-21T20:45:00.553Z,84.72
2023-03-21T20:47:33.875Z,84.48
2023-03-21T20:50:07.964Z,85.17
2023-03-21T20:53:04.503Z,85.44
2023-03-21T20:55:37.432Z,86.33
2023-03-21T20:58:36.533Z,86.59
2023-03-21T21:01:13.885Z,86.58
2023-03-21T21:03:49.570Z,86.73
2023-03-21T21:06:22.994Z,87.10
2023-03-21T21:08:59.388Z,86.98
2023-03-21T21:12:05.577Z,87.43
2023-03-21T21:14:26.430Z,87.81
2023-03-21T21:17:04.892Z,87.46
2023-03-21T21:19:46.120Z,87.67
2023-03-21T21:22:19.828Z,88.03
2023-03-21T21:24:54.241Z,88.60
2023-03-21T21:27:28.578Z,88.90
2023-03-21T21:30:02.810Z,88.73
2023-03-21T21:32:36.666Z,89.26
2023-03-21T21:35:10.891Z,89.81
2023-03-21T21:37:43.922Z,89.66
2023-03-21T21:40:20.600Z,89.93
2023-03-21T21:42:53.843Z,89.77
2023-03-21T21:45:26.930Z,90.35
2023-03-21T21:48:00.774Z,90.62
2023-03-21T21:50:34.069Z,91.29
2023-03-21T21:53:07.331Z,92.14
2023-03-21T21:55:42.239Z,92.57
2023-03-21T21:58:18.555Z,93.10
2023-03-21T22:00:51.635Z,93.13
2023-03-21T22:03:26.070Z,93.95
2023-03-21T22:06:02.960Z,93.54
2023-03-21T22:08:36.312Z,93.63
2023-03-21T22:11:10.906Z,94.13
2023-03-21T22:13:44.806Z,93.44
2023-03-21T22:16:18.605Z,93.84
2023-03-21T22:18:51.658Z,94.49
2023-03-21T22:21:24.709Z,94.11
2023-03-21T22:23:58.241Z,94.97
2023-03-21T22:26:33.599Z,95.34
2023-03-21T22:29:08.284Z,94.38
2023-03-21T22:31:41.877Z,94.98
2023-03-21T22:34:14.944Z,94.83
2023-03-21T22:36:50.472Z,95.59
2023-03-21T22:39:26.297Z,94.85
2023-03-21T22:42:04.419Z,94.84
2023-03-21T22:44:37.666Z,94.26
2023-03-21T22:47:11.774Z,93.88
2023-03-21T22:49:46.999Z,95.06
2023-03-21T22:52:20.105Z,95.08
2023-03-21T22:54:55.111Z,94.00
2023-03-21T22:57:30.256Z,93.81
2023-03-21T23:00:04.598Z,94.90
2023-03-21T23:02:37.946Z,94.83
2023-03-21T23:05:11.475Z,95.20
2023-03-21T23:07:44.381Z,94.63
2023-03-21T23:10:17.786Z,94.24
2023-03-21T23:12:52.808Z,93.88
2023-03-21T23:15:26.227Z,96.22
2023-03-21T23:17:59.869Z,96.93
2023-03-21T23:20:33.187Z,98.23
2023-03-21T23:23:06.544Z,97.61
2023-03-21T23:25:42.399Z,98.17
2023-03-21T23:28:16.913Z,98.37
2023-03-21T23:30:49.828Z,98.29
2023-03-21T23:33:23.324Z,97.66
2023-03-21T23:35:56.481Z,99.16
2023-03-21T23:38:29.656Z,98.23
2023-03-21T23:41:07.024Z,98.18
2023-03-21T23:43:42.606Z,98.17
2023-03-21T23:46:16.464Z,99.34
2023-03-21T23:48:49.590Z,99.10
2023-03-21T23:51:27.635Z,98.90
2023-03-21T23:54:00.657Z,100.00
2023-03-21T23:56:33.934Z,100.00
2023-03-21T23:59:08.439Z,99.85
